sensor_id;sensor_type;location;lat;lon;timestamp;P1;durP1;ratioP1;P2;durP2;ratioP2
12072;SDS011;6098;49.004;8.372;2023-08-21T00:09:29;10.60;;;7.53;;
12072;SDS011;6098;49.004;8.372;2023-08-21T00:24:22;9.72;;;7.58;;
12072;SDS011;6098;49.004;8.372;2023-08-21T00:39:15;8.93;;;7.40;;
12072;SDS011;6098;49.004;8.372;2023-08-21T00:54:07;10.61;;;8.10;;
12072;SDS011;6098;49.004;8.372;2023-08-21T01:09:11;11.13;;;8.14;;
12072;SDS011;6098;49.004;8.372;2023-08-21T01:24:06;8.00;;;7.17;;
12072;SDS011;6098;49.004;8.372;2023-08-21T01:38:59;8.66;;;6.14;;
12072;SDS011;6098;49.004;8.372;2023-08-21T01:53:52;9.80;;;7.21;;
12072;SDS011;6098;49.004;8.372;2023-08-21T02:08:44;7.81;;;6.76;;
12072;SDS011;6098;49.004;8.372;2023-08-21T02:23:37;9.49;;;7.29;;
12072;SDS011;6098;49.004;8.372;2023-08-21T02:38:31;9.61;;;7.41;;
12072;SDS011;6098;49.004;8.372;2023-08-21T02:53:23;9.61;;;7.39;;
12072;SDS011;6098;49.004;8.372;2023-08-21T03:08:15;9.42;;;7.60;;
12072;SDS011;6098;49.004;8.372;2023-08-21T03:23:12;7.92;;;7.11;;
12072;SDS011;6098;49.004;8.372;2023-08-21T03:38:03;11.36;;;7.31;;
12072;SDS011;6098;49.004;8.372;2023-08-21T03:52:56;8.66;;;6.78;;
12072;SDS011;6098;49.004;8.372;2023-08-21T04:07:48;8.12;;;6.63;;
12072;SDS011;6098;49.004;8.372;2023-08-21T04:22:41;9.66;;;8.06;;
12072;SDS011;6098;49.004;8.372;2023-08-21T04:37:32;8.99;;;7.01;;
12072;SDS011;6098;49.004;8.372;2023-08-21T04:52:25;7.81;;;7.00;;
12072;SDS011;6098;49.004;8.372;2023-08-21T05:07:18;8.90;;;7.38;;
12072;SDS011;6098;49.004;8.372;2023-08-21T05:22:10;13.10;;;8.00;;
12072;SDS011;6098;49.004;8.372;2023-08-21T05:37:04;11.61;;;8.09;;
12072;SDS011;6098;49.004;8.372;2023-08-21T05:51:58;9.74;;;7.46;;
12072;SDS011;6098;49.004;8.372;2023-08-21T06:06:52;9.48;;;7.67;;
12072;SDS011;6098;49.004;8.372;2023-08-21T06:21:46;10.67;;;8.17;;
12072;SDS011;6098;49.004;8.372;2023-08-21T06:36:39;9.78;;;7.92;;
12072;SDS011;6098;49.004;8.372;2023-08-21T06:51:32;9.37;;;8.04;;
12072;SDS011;6098;49.004;8.372;2023-08-21T07:06:27;10.76;;;8.28;;
12072;SDS011;6098;49.004;8.372;2023-08-21T07:21:20;11.50;;;8.23;;
12072;SDS011;6098;49.004;8.372;2023-08-21T07:36:13;9.14;;;7.88;;
12072;SDS011;6098;49.004;8.372;2023-08-21T07:51:07;10.72;;;8.54;;
12072;SDS011;6098;49.004;8.372;2023-08-21T08:06:02;11.86;;;8.47;;
12072;SDS011;6098;49.004;8.372;2023-08-21T08:20:56;10.83;;;7.81;;
12072;SDS011;6098;49.004;8.372;2023-08-21T08:35:48;8.29;;;7.49;;
12072;SDS011;6098;49.004;8.372;2023-08-21T08:50:42;9.63;;;7.37;;
12072;SDS011;6098;49.004;8.372;2023-08-21T09:05:36;8.53;;;7.01;;
12072;SDS011;6098;49.004;8.372;2023-08-21T09:20:34;9.43;;;6.89;;
12072;SDS011;6098;49.004;8.372;2023-08-21T09:35:23;10.27;;;6.76;;
12072;SDS011;6098;49.004;8.372;2023-08-21T09:50:16;6.83;;;6.12;;
12072;SDS011;6098;49.004;8.372;2023-08-21T10:05:10;9.94;;;5.97;;
12072;SDS011;6098;49.004;8.372;2023-08-21T10:20:04;10.96;;;6.49;;
12072;SDS011;6098;49.004;8.372;2023-08-21T10:34:57;9.71;;;6.46;;
12072;SDS011;6098;49.004;8.372;2023-08-21T10:49:51;9.27;;;6.39;;
12072;SDS011;6098;49.004;8.372;2023-08-21T11:04:44;12.32;;;6.77;;
12072;SDS011;6098;49.004;8.372;2023-08-21T11:19:38;8.11;;;6.33;;
12072;SDS011;6098;49.004;8.372;2023-08-21T11:34:32;9.31;;;6.54;;
12072;SDS011;6098;49.004;8.372;2023-08-21T11:49:25;9.01;;;6.30;;
12072;SDS011;6098;49.004;8.372;2023-08-21T12:04:20;8.01;;;6.00;;
12072;SDS011;6098;49.004;8.372;2023-08-21T12:19:14;10.89;;;6.13;;
12072;SDS011;6098;49.004;8.372;2023-08-21T12:34:08;7.82;;;5.69;;
12072;SDS011;6098;49.004;8.372;2023-08-21T12:49:01;8.69;;;6.09;;
12072;SDS011;6098;49.004;8.372;2023-08-21T13:03:54;5.77;;;4.78;;
12072;SDS011;6098;49.004;8.372;2023-08-21T13:18:48;8.68;;;5.40;;
12072;SDS011;6098;49.004;8.372;2023-08-21T13:33:49;5.80;;;4.54;;
12072;SDS011;6098;49.004;8.372;2023-08-21T13:48:46;7.08;;;4.90;;
12072;SDS011;6098;49.004;8.372;2023-08-21T14:03:44;4.26;;;3.84;;
12072;SDS011;6098;49.004;8.372;2023-08-21T14:18:43;7.28;;;4.58;;
12072;SDS011;6098;49.004;8.372;2023-08-21T14:33:38;8.00;;;4.90;;
12072;SDS011;6098;49.004;8.372;2023-08-21T14:48:33;5.83;;;4.94;;
12072;SDS011;6098;49.004;8.372;2023-08-21T15:03:26;7.43;;;5.30;;
12072;SDS011;6098;49.004;8.372;2023-08-21T15:18:21;4.89;;;4.49;;
12072;SDS011;6098;49.004;8.372;2023-08-21T15:33:16;6.00;;;4.80;;
12072;SDS011;6098;49.004;8.372;2023-08-21T15:48:10;5.20;;;4.68;;
12072;SDS011;6098;49.004;8.372;2023-08-21T16:03:01;5.90;;;4.54;;
12072;SDS011;6098;49.004;8.372;2023-08-21T16:17:55;5.74;;;4.59;;
12072;SDS011;6098;49.004;8.372;2023-08-21T16:32:47;5.33;;;4.38;;
12072;SDS011;6098;49.004;8.372;2023-08-21T16:47:41;6.27;;;4.64;;
12072;SDS011;6098;49.004;8.372;2023-08-21T17:02:33;5.82;;;4.60;;
12072;SDS011;6098;49.004;8.372;2023-08-21T17:17:27;5.81;;;4.66;;
12072;SDS011;6098;49.004;8.372;2023-08-21T17:32:20;7.74;;;5.01;;
12072;SDS011;6098;49.004;8.372;2023-08-21T17:47:13;6.98;;;4.81;;
12072;SDS011;6098;49.004;8.372;2023-08-21T18:02:06;6.72;;;4.94;;
12072;SDS011;6098;49.004;8.372;2023-08-21T18:16:59;5.74;;;4.63;;
12072;SDS011;6098;49.004;8.372;2023-08-21T18:31:52;5.89;;;4.70;;
12072;SDS011;6098;49.004;8.372;2023-08-21T18:46:44;5.47;;;4.31;;
12072;SDS011;6098;49.004;8.372;2023-08-21T19:01:37;5.43;;;3.62;;
12072;SDS011;6098;49.004;8.372;2023-08-21T19:16:35;4.84;;;3.26;;
12072;SDS011;6098;49.004;8.372;2023-08-21T19:31:27;4.62;;;3.42;;
12072;SDS011;6098;49.004;8.372;2023-08-21T19:46:20;4.10;;;3.21;;
12072;SDS011;6098;49.004;8.372;2023-08-21T20:01:12;4.53;;;3.56;;
12072;SDS011;6098;49.004;8.372;2023-08-21T20:16:04;5.89;;;3.49;;
12072;SDS011;6098;49.004;8.372;2023-08-21T20:31:02;4.23;;;3.40;;
12072;SDS011;6098;49.004;8.372;2023-08-21T20:45:52;5.60;;;4.29;;
12072;SDS011;6098;49.004;8.372;2023-08-21T21:00:45;11.20;;;6.10;;
12072;SDS011;6098;49.004;8.372;2023-08-21T21:15:37;8.07;;;6.58;;
12072;SDS011;6098;49.004;8.372;2023-08-21T21:30:30;5.19;;;4.68;;
12072;SDS011;6098;49.004;8.372;2023-08-21T21:45:23;7.90;;;5.83;;
12072;SDS011;6098;49.004;8.372;2023-08-21T22:00:15;7.44;;;5.64;;
12072;SDS011;6098;49.004;8.372;2023-08-21T22:15:09;8.62;;;5.62;;
12072;SDS011;6098;49.004;8.372;2023-08-21T22:30:02;8.50;;;6.08;;
12072;SDS011;6098;49.004;8.372;2023-08-21T22:44:55;7.28;;;6.36;;
12072;SDS011;6098;49.004;8.372;2023-08-21T22:59:45;8.42;;;5.74;;
12072;SDS011;6098;49.004;8.372;2023-08-21T23:14:38;7.52;;;6.06;;
12072;SDS011;6098;49.004;8.372;2023-08-21T23:29:30;8.01;;;6.06;;
12072;SDS011;6098;49.004;8.372;2023-08-21T23:44:23;11.23;;;6.26;;
12072;SDS011;6098;49.004;8.372;2023-08-21T23:59:16;7.76;;;5.97;;
